Time;durP1;ratioP1;P1;durP2;ratioP2;P2;SDS_P1;SDS_P2;PMS_P1;PMS_P2;Temp;Humidity;BMP_temperature;BMP_pressure;BME280_temperature;BME280_humidity;BME280_pressure;Samples;Min_cycle;Max_cycle;Signal;HPM_P1;HPM_P2
2024/02/16 00:00:23;;;;;;;22.00;10.30;;;;;;;3.42;100.00;101359.65;86879;275;137494;-62
2024/02/16 00:02:25;;;;;;;14.80;10.90;;;;;;;3.40;100.00;101357.34;87527;274;22763;-63
2024/02/16 00:04:28;;;;;;;18.20;10.90;;;;;;;3.38;100.00;101357.35;86846;275;137130;-66
2024/02/16 00:06:31;;;;;;;14.90;9.40;;;;;;;3.36;100.00;101359.45;87014;273;25168;-65
2024/02/16 00:08:34;;;;;;;19.00;12.00;;;;;;;3.34;100.00;101359.39;86898;277;136953;-66
2024/02/16 00:10:38;;;;;;;17.90;9.60;;;;;;;3.36;100.00;101361.23;86840;282;24023;-66
2024/02/16 00:12:41;;;;;;;19.40;12.70;;;;;;;3.39;100.00;101360.23;86857;283;137133;-65
2024/02/16 00:14:45;;;;;;;18.00;11.50;;;;;;;3.41;100.00;101362.07;86953;270;22608;-65
2024/02/16 00:16:48;;;;;;;18.50;11.30;;;;;;;3.43;100.00;101355.19;86914;280;136512;-64
2024/02/16 00:18:50;;;;;;;18.50;10.50;;;;;;;3.44;100.00;101351.09;87177;280;24783;-63
2024/02/16 00:20:52;;;;;;;25.90;11.60;;;;;;;3.40;100.00;101353.39;86855;276;136360;-63
2024/02/16 00:22:55;;;;;;;16.30;10.20;;;;;;;3.32;100.00;101355.89;87027;272;25171;-64
2024/02/16 00:24:57;;;;;;;27.10;14.40;;;;;;;3.27;100.00;101356.09;86513;279;136714;-64
2024/02/16 00:27:00;;;;;;;18.70;11.90;;;;;;;3.27;100.00;101355.70;86639;273;23969;-65
2024/02/16 00:29:02;;;;;;;17.50;11.20;;;;;;;3.31;100.00;101352.58;86734;274;136856;-65
2024/02/16 00:31:05;;;;;;;24.10;12.50;;;;;;;3.32;100.00;101355.14;86908;279;24020;-65
2024/02/16 00:33:07;;;;;;;19.70;11.10;;;;;;;3.29;100.00;101354.70;86979;274;138379;-69
2024/02/16 00:35:11;;;;;;;17.70;11.50;;;;;;;3.32;100.00;101354.30;86883;282;22566;-64
2024/02/16 00:37:13;;;;;;;24.60;12.40;;;;;;;3.37;100.00;101347.77;86751;274;137137;-69
2024/02/16 00:39:15;;;;;;;13.60;9.30;;;;;;;3.42;100.00;101347.02;86847;276;22592;-63
2024/02/16 00:41:22;;;;;;;13.10;10.00;;;;;;;3.47;100.00;101345.27;89531;267;137895;-66
2024/02/16 00:43:23;;;;;;;19.70;11.20;;;;;;;3.45;100.00;101346.83;88667;271;25121;-64
2024/02/16 00:45:25;;;;;;;20.20;12.50;;;;;;;3.44;100.00;101344.62;86849;282;136220;-63
2024/02/16 00:47:27;;;;;;;20.90;13.30;;;;;;;3.40;100.00;101344.56;86948;281;26226;-62
2024/02/16 00:49:29;;;;;;;15.30;9.70;;;;;;;3.43;100.00;101347.33;86817;283;136743;-67
2024/02/16 00:51:31;;;;;;;22.80;9.30;;;;;;;3.48;100.00;101350.58;86714;271;22574;-62
2024/02/16 00:53:34;;;;;;;14.10;9.60;;;;;;;3.45;100.00;101349.98;86627;274;136766;-65
2024/02/16 00:55:36;;;;;;;16.90;10.30;;;;;;;3.40;100.00;101348.08;86800;271;25191;-64
2024/02/16 00:57:39;;;;;;;18.90;11.70;;;;;;;3.39;100.00;101350.57;86690;274;137099;-62
2024/02/16 00:59:41;;;;;;;18.30;10.70;;;;;;;3.43;100.00;101353.63;87023;269;25275;-63
2024/02/16 01:01:43;;;;;;;14.20;9.90;;;;;;;3.48;100.00;101353.73;86733;274;137241;-64
2024/02/16 01:03:45;;;;;;;21.80;9.70;;;;;;;3.52;100.00;101354.50;86918;275;22584;-64
2024/02/16 01:05:46;;;;;;;17.10;10.00;;;;;;;3.54;100.00;101353.46;86777;283;135846;-62
2024/02/16 01:07:48;;;;;;;17.10;10.40;;;;;;;3.51;100.00;101349.15;87098;269;22545;-65
2024/02/16 01:09:50;;;;;;;18.00;11.20;;;;;;;3.48;100.00;101351.45;86726;274;136799;-65
2024/02/16 01:11:52;;;;;;;15.90;10.70;;;;;;;3.49;100.00;101351.39;86802;274;22578;-65
2024/02/16 01:13:55;;;;;;;20.90;9.80;;;;;;;3.56;100.00;101348.61;86586;281;137427;-61
2024/02/16 01:15:57;;;;;;;15.60;10.40;;;;;;;3.62;100.00;101352.34;86871;279;25128;-64
2024/02/16 01:18:00;;;;;;;18.10;8.90;;;;;;;3.63;100.00;101343.85;86710;275;139395;-63
2024/02/16 01:20:04;;;;;;;17.30;9.10;;;;;;;3.59;100.00;101345.16;86967;274;25143;-62
2024/02/16 01:22:06;;;;;;;17.10;10.00;;;;;;;3.57;100.00;101346.11;87147;280;22816;-64
2024/02/16 01:24:08;;;;;;;16.30;9.10;;;;;;;3.57;100.00;101348.86;86791;282;137305;-63
2024/02/16 01:26:10;;;;;;;24.80;11.70;;;;;;;3.58;100.00;101348.64;87054;274;25114;-64
2024/02/16 01:28:13;;;;;;;13.90;9.40;;;;;;;3.60;100.00;101353.92;87020;277;137076;-62
2024/02/16 01:30:15;;;;;;;21.30;11.80;;;;;;;3.60;100.00;101347.91;87052;273;25125;-68
2024/02/16 01:32:18;;;;;;;19.40;9.50;;;;;;;3.57;100.00;101346.91;86973;274;137355;-66
2024/02/16 01:34:22;;;;;;;19.40;9.40;;;;;;;3.50;100.00;101348.13;86988;281;22590;-68
2024/02/16 01:36:24;;;;;;;32.90;9.40;;;;;;;3.44;100.00;101345.48;86820;278;135929;-62
2024/02/16 01:38:26;;;;;;;17.70;9.70;;;;;;;3.44;100.00;101340.94;86804;275;22577;-62
2024/02/16 01:40:28;;;;;;;13.50;8.70;;;;;;;3.49;100.00;101342.07;86729;270;136897;-63
2024/02/16 01:42:30;;;;;;;15.00;9.00;;;;;;;3.51;100.00;101340.16;87786;267;25905;-62
2024/02/16 01:44:33;;;;;;;18.90;9.90;;;;;;;3.54;100.00;101343.65;86759;268;137957;-64
2024/02/16 01:46:36;;;;;;;22.10;10.10;;;;;;;3.59;100.00;101347.34;86926;273;24001;-66
2024/02/16 01:48:39;;;;;;;16.60;10.70;;;;;;;3.61;100.00;101342.77;86786;281;137272;-66
2024/02/16 01:50:43;;;;;;;22.90;13.40;;;;;;;3.66;100.00;101340.09;87024;273;22575;-64
2024/02/16 01:52:46;;;;;;;24.00;13.00;;;;;;;3.73;100.00;101340.46;86790;273;136827;-62
2024/02/16 01:54:48;;;;;;;22.30;11.80;;;;;;;3.80;100.00;101336.55;86681;275;25098;-66
2024/02/16 01:56:50;;;;;;;17.60;12.10;;;;;;;3.87;100.00;101340.08;86860;282;137835;-63
2024/02/16 01:58:52;;;;;;;16.50;10.00;;;;;;;3.90;100.00;101336.13;87074;271;22707;-63
2024/02/16 02:00:54;;;;;;;21.10;10.70;;;;;;;3.89;100.00;101335.45;86954;277;137972;-63
2024/02/16 02:02:57;;;;;;;18.50;11.90;;;;;;;3.87;100.00;101333.52;86956;271;22620;-63
2024/02/16 02:04:59;;;;;;;19.90;12.30;;;;;;;3.83;100.00;101333.52;86821;281;136612;-63
2024/02/16 02:07:14;;;;;;;26.60;10.00;;;;;;;3.87;100.00;101336.20;87112;274;22562;-63
2024/02/16 02:09:16;;;;;;;25.00;12.20;;;;;;;3.95;100.00;101338.18;86891;270;139219;-63
2024/02/16 02:11:18;;;;;;;15.40;9.40;;;;;;;4.00;100.00;101337.30;86831;282;22581;-64
2024/02/16 02:13:21;;;;;;;27.90;12.20;;;;;;;4.02;100.00;101336.71;86619;274;137424;-64
2024/02/16 02:15:24;;;;;;;14.80;10.30;;;;;;;4.03;100.00;101341.77;87109;270;22560;-63
2024/02/16 02:17:26;;;;;;;16.40;9.70;;;;;;;4.02;100.00;101342.21;86835;274;137795;-63
2024/02/16 02:19:29;;;;;;;23.40;12.10;;;;;;;3.99;100.00;101339.63;86921;282;23455;-64
2024/02/16 02:21:31;;;;;;;20.10;10.90;;;;;;;3.98;100.00;101340.60;86931;278;136545;-62
2024/02/16 02:23:34;;;;;;;18.70;11.30;;;;;;;3.93;100.00;101339.56;86935;274;25201;-63
2024/02/16 02:25:36;;;;;;;23.80;12.40;;;;;;;3.88;100.00;101341.90;86850;280;137714;-63
2024/02/16 02:27:39;;;;;;;19.30;11.10;;;;;;;3.87;100.00;101340.88;86890;273;22565;-69
2024/02/16 02:29:42;;;;;;;20.40;10.20;;;;;;;3.94;100.00;101341.99;86910;274;137416;-67
2024/02/16 02:31:50;;;;;;;25.60;9.10;;;;;;;3.97;100.00;101346.30;87243;266;24132;-63
2024/02/16 02:33:52;;;;;;;20.70;10.20;;;;;;;3.97;100.00;101351.03;86716;281;136990;-63
2024/02/16 02:35:54;;;;;;;21.00;10.40;;;;;;;3.96;100.00;101357.83;86745;275;22638;-63
2024/02/16 02:37:56;;;;;;;24.00;10.10;;;;;;;3.94;100.00;101357.44;86793;280;136974;-66
2024/02/16 02:39:58;;;;;;;22.80;10.60;;;;;;;3.91;100.00;101354.30;86969;281;22645;-65
2024/02/16 02:42:00;;;;;;;21.90;9.80;;;;;;;3.90;100.00;101355.48;86798;270;136357;-67
2024/02/16 02:44:02;;;;;;;17.20;9.30;;;;;;;3.89;100.00;101355.69;86860;281;22596;-66
2024/02/16 02:46:04;;;;;;;22.70;11.20;;;;;;;3.93;100.00;101357.85;86876;274;22947;-67
2024/02/16 02:48:06;;;;;;;26.20;10.60;;;;;;;3.99;100.00;101358.83;86888;281;137621;-63
2024/02/16 02:50:09;;;;;;;24.50;10.60;;;;;;;4.02;100.00;101361.03;86919;274;25249;-63
2024/02/16 02:52:11;;;;;;;19.50;11.20;;;;;;;4.05;100.00;101362.39;86942;281;138221;-63
2024/02/16 02:54:12;;;;;;;24.70;11.60;;;;;;;4.08;100.00;101365.13;86718;276;24014;-64
2024/02/16 02:56:14;;;;;;;17.60;10.20;;;;;;;4.11;100.00;101366.69;86892;276;137329;-66
2024/02/16 02:58:17;;;;;;;26.60;10.50;;;;;;;4.10;100.00;101365.69;86964;274;24004;-63
2024/02/16 03:00:19;;;;;;;26.60;11.70;;;;;;;4.04;100.00;101368.09;87064;274;136788;-63
2024/02/16 03:02:21;;;;;;;30.30;10.80;;;;;;;3.97;100.00;101371.61;86881;274;25249;-66
2024/02/16 03:04:23;;;;;;;34.10;11.20;;;;;;;3.93;100.00;101370.84;86657;275;137532;-64
2024/02/16 03:06:25;;;;;;;28.30;10.90;;;;;;;3.97;100.00;101367.77;88236;277;22561;-64
2024/02/16 03:08:28;;;;;;;29.40;11.10;;;;;;;4.00;100.00;101368.40;87102;278;137318;-64
2024/02/16 03:10:34;;;;;;;21.90;10.00;;;;;;;4.04;100.00;101369.84;86855;282;24125;-63
2024/02/16 03:12:36;;;;;;;24.40;10.40;;;;;;;4.08;100.00;101373.93;86977;281;137391;-64
2024/02/16 03:14:38;;;;;;;22.50;10.40;;;;;;;4.10;100.00;101376.21;86865;273;24386;-63
2024/02/16 03:16:40;;;;;;;16.60;10.20;;;;;;;4.09;100.00;101377.89;86888;271;136286;-63
2024/02/16 03:18:42;;;;;;;30.30;11.50;;;;;;;4.07;100.00;101379.93;86755;276;22577;-62
2024/02/16 03:20:47;;;;;;;21.80;12.00;;;;;;;4.06;100.00;101381.11;86825;274;136586;-62
2024/02/16 03:22:49;;;;;;;;;;;;;;;4.02;100.00;101383.55;87161;277;22564;-63
2024/02/16 03:24:51;;;;;;;23.00;10.70;;;;;;;4.02;100.00;101389.84;86863;274;123421;-67
2024/02/16 03:26:53;;;;;;;24.00;9.80;;;;;;;4.05;100.00;101389.77;87037;282;25245;-63
2024/02/16 03:28:56;;;;;;;22.60;10.80;;;;;;;4.08;100.00;101392.77;86853;282;138240;-74
2024/02/16 03:30:58;;;;;;;20.00;10.90;;;;;;;4.07;100.00;101391.70;88551;266;24042;-73
2024/02/16 03:32:59;;;;;;;15.20;10.10;;;;;;;4.10;100.00;101389.63;87147;274;137156;-73
2024/02/16 03:35:02;;;;;;;21.60;9.60;;;;;;;4.10;100.00;101388.02;87470;274;25217;-72
2024/02/16 03:37:04;;;;;;;19.80;9.40;;;;;;;4.08;100.00;101386.91;87241;266;136931;-74
2024/02/16 03:39:08;;;;;;;23.20;9.30;;;;;;;4.06;100.00;101388.13;87559;270;25968;-73
2024/02/16 03:41:15;;;;;;;20.50;10.30;;;;;;;4.03;100.00;101392.82;87233;278;136267;-73
2024/02/16 03:43:17;;;;;;;22.90;10.70;;;;;;;4.00;100.00;101394.77;87386;281;22661;-74
2024/02/16 03:45:18;;;;;;;31.10;10.70;;;;;;;3.95;100.00;101397.08;87438;273;137838;-74
2024/02/16 03:47:20;;;;;;;18.70;9.20;;;;;;;3.95;100.00;101394.12;87329;273;25095;-75
2024/02/16 03:49:22;;;;;;;20.60;9.20;;;;;;;4.00;100.00;101395.98;87206;273;136542;-72
2024/02/16 03:51:25;;;;;;;21.10;9.90;;;;;;;4.01;100.00;101393.65;87341;274;25150;-72
2024/02/16 03:53:26;;;;;;;21.30;9.90;;;;;;;4.00;100.00;101393.01;86854;274;137151;-71
2024/02/16 03:55:28;;;;;;;15.70;9.50;;;;;;;4.01;100.00;101389.24;86802;278;24714;-72
2024/02/16 03:57:31;;;;;;;16.70;9.80;;;;;;;4.00;100.00;101395.64;87214;275;138024;-72
2024/02/16 03:59:33;;;;;;;20.20;10.50;;;;;;;3.96;100.00;101394.73;87530;282;22549;-73
2024/02/16 04:01:35;;;;;;;19.50;10.50;;;;;;;3.94;100.00;101399.27;87079;267;136759;-72
2024/02/16 04:03:37;;;;;;;28.50;11.90;;;;;;;3.92;100.00;101400.34;87368;275;24149;-73
2024/02/16 04:05:39;;;;;;;20.00;12.30;;;;;;;3.87;100.00;101402.11;87043;271;136524;-72
2024/02/16 04:07:41;;;;;;;22.60;11.80;;;;;;;3.84;100.00;101401.84;87562;274;24026;-72
2024/02/16 04:09:43;;;;;;;17.80;11.00;;;;;;;3.87;100.00;101401.90;87354;269;137072;-71
2024/02/16 04:11:46;;;;;;;30.70;12.40;;;;;;;3.95;100.00;101404.67;87542;267;25281;-71
2024/02/16 04:13:48;;;;;;;25.30;12.10;;;;;;;3.98;100.00;101408.83;87318;272;139701;-71
2024/02/16 04:15:50;;;;;;;21.10;12.20;;;;;;;4.00;100.00;101411.65;86988;277;26221;-73
2024/02/16 04:17:56;;;;;;;20.60;11.30;;;;;;;4.01;100.00;101413.38;87310;275;136788;-70
2024/02/16 04:19:58;;;;;;;13.70;10.80;;;;;;;4.01;100.00;101413.16;87045;279;22587;-71
2024/02/16 04:21:59;;;;;;;21.50;12.60;;;;;;;4.05;100.00;101412.51;86869;279;137237;-71
2024/02/16 04:24:02;;;;;;;17.50;10.80;;;;;;;4.06;100.00;101410.27;86926;269;25246;-70
2024/02/16 04:26:06;;;;;;;20.50;11.50;;;;;;;4.07;100.00;101411.66;87111;271;22796;-72
2024/02/16 04:28:09;;;;;;;18.90;11.40;;;;;;;4.05;100.00;101415.82;87133;267;136899;-71
2024/02/16 04:30:11;;;;;;;16.40;11.20;;;;;;;4.09;100.00;101418.01;87248;278;22670;-71
2024/02/16 04:32:13;;;;;;;14.40;10.30;;;;;;;4.16;100.00;101419.44;87151;263;137612;-72
2024/02/16 04:34:15;;;;;;;16.80;11.10;;;;;;;4.19;100.00;101419.82;87248;279;24145;-72
2024/02/16 04:36:16;;;;;;;15.10;10.40;;;;;;;4.24;100.00;101421.02;87311;271;137429;-72
2024/02/16 04:38:19;;;;;;;18.70;11.00;;;;;;;4.27;100.00;101422.73;87377;275;24150;-71
2024/02/16 04:40:21;;;;;;;14.20;10.40;;;;;;;4.30;100.00;101421.29;87329;272;137209;-72
2024/02/16 04:42:23;;;;;;;15.50;11.20;;;;;;;4.33;100.00;101416.45;87568;275;22561;-71
2024/02/16 04:44:25;;;;;;;15.40;10.70;;;;;;;4.33;100.00;101418.59;87036;272;136520;-73
2024/02/16 04:46:27;;;;;;;18.60;12.70;;;;;;;4.29;100.00;101422.08;87055;276;22658;-73
2024/02/16 04:48:31;;;;;;;17.50;11.20;;;;;;;4.24;100.00;101418.75;87569;275;136413;-73
2024/02/16 04:50:33;;;;;;;15.80;11.30;;;;;;;4.25;100.00;101417.11;87545;272;24126;-74
2024/02/16 04:52:41;;;;;;;15.70;10.60;;;;;;;4.30;100.00;101423.41;87491;275;137228;-72
2024/02/16 04:54:42;;;;;;;13.70;10.60;;;;;;;4.35;100.00;101423.57;87561;273;22601;-73
2024/02/16 04:56:45;;;;;;;16.40;11.50;;;;;;;4.40;100.00;101424.75;87602;275;137167;-72
2024/02/16 04:58:46;;;;;;;12.20;9.70;;;;;;;4.46;100.00;101426.54;87559;272;22555;-72
2024/02/16 05:00:48;;;;;;;16.10;10.50;;;;;;;4.47;100.00;101430.27;87483;272;136896;-73
2024/02/16 05:02:52;;;;;;;14.50;11.00;;;;;;;4.48;100.00;101427.97;87542;275;25209;-73
2024/02/16 05:04:54;;;;;;;14.60;11.60;;;;;;;4.46;100.00;101426.37;87425;275;137011;-72
2024/02/16 05:06:57;;;;;;;15.20;11.50;;;;;;;4.43;100.00;101428.02;87679;266;25181;-73
2024/02/16 05:08:59;;;;;;;14.20;12.00;;;;;;;4.42;100.00;101432.82;87477;268;136057;-72
2024/02/16 05:11:02;;;;;;;15.10;10.50;;;;;;;4.45;100.00;101430.85;87549;269;22850;-73
2024/02/16 05:13:04;;;;;;;12.90;9.90;;;;;;;4.45;100.00;101434.02;87512;275;137477;-70
2024/02/16 05:15:07;;;;;;;12.80;9.10;;;;;;;4.47;100.00;101439.13;87687;278;25079;-72
2024/02/16 05:17:08;;;;;;;11.40;9.00;;;;;;;4.48;100.00;101439.36;87410;275;138740;-72
2024/02/16 05:19:11;;;;;;;11.60;9.70;;;;;;;4.50;100.00;101441.05;87051;280;22703;-74
2024/02/16 05:21:13;;;;;;;13.20;9.40;;;;;;;4.51;100.00;101442.20;87710;278;136657;-74
2024/02/16 05:23:14;;;;;;;12.20;10.30;;;;;;;4.47;100.00;101442.96;87624;271;25248;-74
2024/02/16 05:25:18;;;;;;;10.80;9.60;;;;;;;4.42;100.00;101443.71;87310;277;137523;-73
2024/02/16 05:27:20;;;;;;;10.70;9.20;;;;;;;4.39;100.00;101445.91;87311;276;22571;-74
2024/02/16 05:29:22;;;;;;;12.70;9.20;;;;;;;4.40;100.00;101445.99;87426;279;136564;-73
2024/02/16 05:31:23;;;;;;;10.90;9.30;;;;;;;4.45;100.00;101445.95;87397;272;22491;-72
2024/02/16 05:33:26;;;;;;;10.60;9.40;;;;;;;4.48;100.00;101446.95;87508;269;136975;-71
2024/02/16 05:35:33;;;;;;;12.40;9.70;;;;;;;4.49;100.00;101445.82;87895;275;22575;-72
2024/02/16 05:37:36;;;;;;;13.10;9.80;;;;;;;4.52;100.00;101453.55;87135;276;137982;-74
2024/02/16 05:39:53;;;;;;;11.30;9.30;;;;;;;4.54;100.00;101450.02;87532;271;22567;-73
2024/02/16 05:41:55;;;;;;;12.10;9.40;;;;;;;4.51;100.00;101450.79;87501;278;137048;-72
2024/02/16 05:43:57;;;;;;;14.30;11.30;;;;;;;4.46;100.00;101456.63;87581;271;22574;-72
2024/02/16 05:45:59;;;;;;;13.00;10.80;;;;;;;4.41;100.00;101455.79;87613;278;136373;-73
2024/02/16 05:48:01;;;;;;;11.30;9.70;;;;;;;4.40;100.00;101453.92;87677;268;25258;-73
2024/02/16 05:50:03;;;;;;;13.60;10.60;;;;;;;4.41;100.00;101457.73;87645;273;22561;-70
2024/02/16 05:52:18;;;;;;;13.30;10.60;;;;;;;4.39;100.00;101462.63;87504;278;139325;-71
2024/02/16 05:54:21;;;;;;;12.30;9.90;;;;;;;4.38;100.00;101460.76;87534;275;25080;-70
2024/02/16 05:56:23;;;;;;;12.90;9.20;;;;;;;4.40;100.00;101458.19;87454;268;136540;-70
2024/02/16 05:58:26;;;;;;;11.90;10.30;;;;;;;4.41;100.00;101460.57;87586;271;22573;-70
2024/02/16 06:00:27;;;;;;;10.60;9.30;;;;;;;4.39;100.00;101457.36;87513;278;137095;-71
2024/02/16 06:02:30;;;;;;;11.40;10.10;;;;;;;4.33;100.00;101458.00;87612;267;22642;-72
2024/02/16 06:04:33;;;;;;;14.50;11.20;;;;;;;4.28;100.00;101463.28;87583;275;137648;-73
2024/02/16 06:06:36;;;;;;;15.40;10.20;;;;;;;4.30;100.00;101464.93;87570;272;25124;-72
2024/02/16 06:08:38;;;;;;;11.00;8.60;;;;;;;4.31;100.00;101465.04;87654;272;137130;-72
2024/02/16 06:10:41;;;;;;;11.90;9.40;;;;;;;4.30;100.00;101469.71;87334;280;22635;-71
2024/02/16 06:12:43;;;;;;;10.20;9.10;;;;;;;4.29;100.00;101468.48;87472;279;137256;-73
2024/02/16 06:14:45;;;;;;;12.80;9.40;;;;;;;4.33;100.00;101472.95;87571;279;25085;-72
2024/02/16 06:16:47;;;;;;;9.60;8.60;;;;;;;4.37;100.00;101472.88;87543;280;136931;-74
2024/02/16 06:18:49;;;;;;;8.80;7.90;;;;;;;4.37;100.00;101472.66;87781;275;22622;-72
2024/02/16 06:20:51;;;;;;;14.90;11.30;;;;;;;4.34;100.00;101472.73;87455;279;136055;-72
2024/02/16 06:22:53;;;;;;;11.40;10.20;;;;;;;4.29;100.00;101471.85;87647;271;24154;-70
2024/02/16 06:24:54;;;;;;;13.50;11.00;;;;;;;4.24;100.00;101471.58;87311;268;135809;-72
2024/02/16 06:26:56;;;;;;;15.80;12.10;;;;;;;4.25;100.00;101468.48;87585;271;25083;-72
2024/02/16 06:28:59;;;;;;;11.40;9.70;;;;;;;4.28;100.00;101466.63;87579;276;139425;-72
2024/02/16 06:31:01;;;;;;;14.70;11.40;;;;;;;4.26;100.00;101462.91;87604;272;22644;-75
2024/02/16 06:33:03;;;;;;;12.60;9.00;;;;;;;4.25;100.00;101462.85;87347;277;137517;-72
2024/02/16 06:35:07;;;;;;;13.50;11.30;;;;;;;4.24;100.00;101461.67;87452;279;22996;-71
2024/02/16 06:37:09;;;;;;;13.50;10.30;;;;;;;4.25;100.00;101464.11;87790;275;137217;-73
2024/02/16 06:39:11;;;;;;;12.40;9.80;;;;;;;4.25;100.00;101464.64;87317;271;24017;-66
2024/02/16 06:41:13;;;;;;;14.20;11.60;;;;;;;4.23;100.00;101467.26;86933;275;136370;-67
2024/02/16 06:43:15;;;;;;;12.10;10.30;;;;;;;4.16;100.00;101465.52;86877;273;22596;-68
2024/02/16 06:45:17;;;;;;;14.10;11.50;;;;;;;4.10;100.00;101467.84;86753;273;136004;-68
2024/02/16 06:47:19;;;;;;;14.90;12.10;;;;;;;4.10;100.00;101469.98;86962;272;24901;-69
2024/02/16 06:49:20;;;;;;;18.10;13.90;;;;;;;4.12;100.00;101468.62;86774;280;137474;-68
2024/02/16 06:51:24;;;;;;;17.70;13.80;;;;;;;4.15;100.00;101470.52;87082;279;22599;-73
2024/02/16 06:53:26;;;;;;;19.10;13.90;;;;;;;4.18;100.00;101474.81;88160;275;138083;-70
2024/02/16 06:55:28;;;;;;;19.90;13.60;;;;;;;4.21;100.00;101470.17;87146;266;22585;-72
2024/02/16 06:57:31;;;;;;;16.80;12.50;;;;;;;4.21;100.00;101473.15;87345;271;138310;-71
2024/02/16 06:59:33;;;;;;;19.00;12.90;;;;;;;4.23;100.00;101473.21;87886;271;24481;-73
2024/02/16 07:01:35;;;;;;;13.70;11.10;;;;;;;4.25;100.00;101471.65;87484;278;138171;-70
2024/02/16 07:03:36;;;;;;;17.50;13.50;;;;;;;4.23;100.00;101479.76;87522;279;22604;-69
2024/02/16 07:05:39;;;;;;;15.50;11.90;;;;;;;4.13;100.00;101490.74;87426;268;136396;-70
2024/02/16 07:07:42;;;;;;;12.60;10.70;;;;;;;4.02;100.00;101485.36;87689;279;22706;-71
2024/02/16 07:09:44;;;;;;;13.90;9.70;;;;;;;3.97;100.00;101487.33;87034;268;136983;-71
2024/02/16 07:11:49;;;;;;;11.40;8.70;;;;;;;3.94;100.00;101487.20;87611;280;22579;-71
2024/02/16 07:13:55;;;;;;;16.70;11.40;;;;;;;3.94;100.00;101492.16;88537;266;608522;-73
2024/02/16 07:15:57;;;;;;;11.90;10.20;;;;;;;3.96;100.00;101492.89;87922;267;24013;-75
2024/02/16 07:18:00;;;;;;;12.50;10.40;;;;;;;4.00;100.00;101496.59;87610;270;138312;-72
2024/02/16 07:20:05;;;;;;;12.70;9.80;;;;;;;4.00;100.00;101501.74;87387;275;137452;-72
2024/02/16 07:22:07;;;;;;;12.00;9.80;;;;;;;3.95;100.00;101499.10;87748;274;22529;-74
2024/02/16 07:24:09;;;;;;;11.30;9.50;;;;;;;3.94;100.00;101497.44;87403;267;139797;-74
2024/02/16 07:26:11;;;;;;;12.80;10.50;;;;;;;3.96;100.00;101498.19;87615;270;22567;-72
2024/02/16 07:28:12;;;;;;;11.50;9.80;;;;;;;3.95;100.00;101504.35;87536;271;137422;-74
2024/02/16 07:30:14;;;;;;;10.90;9.40;;;;;;;3.96;100.00;101507.67;87584;271;22615;-74
2024/02/16 07:32:27;;;;;;;18.90;14.00;;;;;;;3.98;100.00;101505.74;87541;271;136565;-72
2024/02/16 07:34:29;;;;;;;15.00;12.30;;;;;;;4.00;100.00;101503.16;87461;275;22569;-72
2024/02/16 07:36:31;;;;;;;15.50;12.10;;;;;;;4.01;100.00;101503.37;87471;275;137638;-71
2024/02/16 07:38:34;;;;;;;16.20;12.00;;;;;;;4.03;100.00;101502.89;87310;271;22616;-71
2024/02/16 07:40:36;;;;;;;19.60;13.40;;;;;;;4.05;100.00;101502.00;87253;279;136697;-72
2024/02/16 07:42:42;;;;;;;15.10;12.10;;;;;;;4.13;100.00;101506.19;87169;267;23117;-70
2024/02/16 07:44:44;;;;;;;17.80;10.60;;;;;;;4.20;100.00;101505.64;87128;276;138330;-71
2024/02/16 07:46:47;;;;;;;16.60;11.50;;;;;;;4.26;100.00;101506.60;87605;264;25290;-72
2024/02/16 07:48:49;;;;;;;17.00;14.30;;;;;;;4.31;100.00;101506.75;87265;280;136809;-71
2024/02/16 07:50:51;;;;;;;19.30;14.00;;;;;;;4.36;100.00;101508.14;87642;267;25124;-72
2024/02/16 07:52:53;;;;;;;18.60;15.00;;;;;;;4.37;100.00;101514.52;87030;268;136573;-71
2024/02/16 07:54:55;;;;;;;22.80;15.80;;;;;;;4.33;100.00;101515.55;87728;274;22649;-73
2024/02/16 07:56:59;;;;;;;21.70;16.10;;;;;;;4.30;100.00;101517.36;87564;270;137289;-73
2024/02/16 07:59:03;;;;;;;24.10;17.50;;;;;;;4.36;100.00;101510.41;87768;271;22567;-71
2024/02/16 08:01:06;;;;;;;23.70;17.50;;;;;;;4.42;100.00;101514.10;87583;266;136714;-68
2024/02/16 08:03:08;;;;;;;20.60;14.80;;;;;;;4.46;100.00;101514.88;87264;278;25108;-70
2024/02/16 08:05:13;;;;;;;27.00;19.70;;;;;;;4.48;100.00;101520.53;87139;266;137422;-70
2024/02/16 08:07:16;;;;;;;35.40;21.00;;;;;;;4.47;100.00;101519.59;88014;270;25236;-72
2024/02/16 08:09:18;;;;;;;30.60;23.40;;;;;;;4.41;100.00;101526.68;87572;275;137234;-70
2024/02/16 08:11:20;;;;;;;30.20;22.90;;;;;;;4.35;100.00;101530.71;87386;267;23614;-70
2024/02/16 08:13:22;;;;;;;30.30;21.40;;;;;;;4.30;100.00;101529.00;87346;278;136521;-71
2024/02/16 08:15:25;;;;;;;28.50;19.00;;;;;;;4.23;100.00;101531.46;87763;278;25177;-72
2024/02/16 08:17:27;;;;;;;31.80;21.10;;;;;;;4.16;100.00;101532.22;87609;278;137097;-71
2024/02/16 08:19:34;;;;;;;26.70;19.00;;;;;;;4.14;100.00;101533.94;87654;271;22600;-72
2024/02/16 08:21:36;;;;;;;23.70;17.50;;;;;;;4.16;100.00;101537.42;87504;267;138292;-71
2024/02/16 08:23:38;;;;;;;26.70;17.00;;;;;;;4.21;100.00;101537.09;87654;271;22575;-70
2024/02/16 08:25:39;;;;;;;30.90;19.50;;;;;;;4.24;100.00;101542.96;87259;271;138098;-69
2024/02/16 08:27:41;;;;;;;26.40;19.80;;;;;;;4.20;100.00;101539.44;87226;271;22532;-70
2024/02/16 08:29:44;;;;;;;27.80;19.90;;;;;;;4.14;100.00;101544.46;87147;269;138575;-71
2024/02/16 08:31:50;;;;;;;28.50;19.50;;;;;;;4.13;100.00;101546.15;87734;267;22639;-70
2024/02/16 08:33:52;;;;;;;27.50;20.70;;;;;;;4.12;100.00;101541.30;87558;270;136836;-71
2024/02/16 08:35:54;;;;;;;22.70;17.40;;;;;;;4.15;100.00;101542.29;87618;274;22568;-72
2024/02/16 08:37:56;;;;;;;23.50;18.00;;;;;;;4.19;100.00;101534.78;87377;268;137020;-71
2024/02/16 08:39:58;;;;;;;25.50;17.40;;;;;;;4.21;100.00;101537.41;87508;272;22581;-71
2024/02/16 08:42:00;;;;;;;23.30;15.60;;;;;;;4.23;100.00;101535.83;87530;271;136608;-70
2024/02/16 08:44:02;;;;;;;21.70;13.80;;;;;;;4.25;100.00;101537.50;87465;279;24058;-73
2024/02/16 08:46:04;;;;;;;24.40;17.60;;;;;;;4.25;100.00;101536.59;87626;273;22910;-71
2024/02/16 08:48:06;;;;;;;27.90;17.80;;;;;;;4.25;100.00;101534.65;87561;274;137413;-75
2024/02/16 08:50:09;;;;;;;32.20;19.20;;;;;;;4.26;100.00;101534.70;87635;270;22563;-70
2024/02/16 08:52:11;;;;;;;29.50;18.30;;;;;;;4.33;100.00;101537.23;87758;271;137452;-71
2024/02/16 08:54:13;;;;;;;31.20;21.40;;;;;;;4.41;100.00;101534.48;87037;280;22732;-71
2024/02/16 08:56:15;;;;;;;23.30;16.30;;;;;;;4.44;100.00;101533.52;86906;271;137308;-69
2024/02/16 08:58:19;;;;;;;23.60;16.80;;;;;;;4.42;100.00;101535.46;87578;279;22573;-71
2024/02/16 09:00:23;;;;;;;19.60;14.50;;;;;;;4.37;100.00;101532.15;86994;272;138430;-71
2024/02/16 09:02:25;;;;;;;20.70;15.60;;;;;;;4.26;100.00;101531.02;87668;266;22568;-71
2024/02/16 09:04:27;;;;;;;22.90;16.10;;;;;;;4.14;100.00;101529.69;87471;278;137687;-72
2024/02/16 09:06:30;;;;;;;21.80;16.20;;;;;;;4.02;100.00;101528.86;87425;268;22755;-72
2024/02/16 09:08:34;;;;;;;22.10;16.70;;;;;;;3.94;100.00;101533.10;87377;277;136528;-70
2024/02/16 09:10:36;;;;;;;23.00;17.10;;;;;;;3.95;100.00;101537.83;87621;278;23876;-71
2024/02/16 09:12:39;;;;;;;29.20;18.30;;;;;;;3.95;100.00;101539.58;87455;279;137111;-73
2024/02/16 09:14:41;;;;;;;21.60;16.70;;;;;;;3.93;100.00;101539.19;87729;271;25238;-74
2024/02/16 09:16:42;;;;;;;26.70;16.30;;;;;;;3.89;100.00;101540.38;87553;272;136780;-75
2024/02/16 09:18:45;;;;;;;25.70;19.10;;;;;;;3.83;100.00;101537.10;87621;280;22777;-72
2024/02/16 09:20:47;;;;;;;25.10;16.90;;;;;;;3.79;100.00;101540.38;87625;268;136944;-72
2024/02/16 09:22:49;;;;;;;25.80;18.40;;;;;;;3.81;100.00;101539.40;87832;279;22577;-72